Joseph, Oregon
Current Conditions -  °F | °C
As of 8:35 PM on Wednesday 22 Oct 2014 (Local Time) from KLGD Reporting Station
Overcast Overcast  
Wind Chill: 15°   Ceiling: 8000
Heat Index: 15°   Visibility: 10mi
Dew Point: -1°   Wind: 10mph
Humidity: 34%   Direction: 180°S
Pressure: 29.87"   Gusts: NA
Location:  45.35°N, 117.23°W
Report Text: KLGD 230335Z AUTO 18009KT 10SM BKN080 OVC110 15/M01 A2987 RMK AO1
Loading
Personal Weather Stations






























Interactive Weather Map
Tropical Storm Tracking
New forecast layout! Learn more

10-Day Weather Forecast

Advertisements
Track Severe Weather on mobile